Cape Express — HO5337 — position and weather

sailwx.info

Track history (hours):
 
Tides and Currents Weather Stations Pressure Air Temp Water Temp Dewpoint Dewpoint Depression Visibility Wind Speed Wind Dir Waves Ship Positions

Cape Express

Last reported at 2016-Jul-24 04:32 UTC. Time now 2016-Jul-25 14:03 UTC.
Position N 25°58' W 079°35'.

Length 29 m; draft 2.2 m.

Type: Cargo ship. MMSI: 370269000.

Date/timePositionNaut miles runAvg speedWind from/ knotsBaromVisibWave heightAir tempDewpointWater temp
2016-Jul-24 04:32N 25°58' W 079°35'8 8.1
2016-Jul-24 03:33N 26°00' W 079°43'8 7.6
2016-Jul-24 02:33N 26°02' W 079°52'7 7.0
2016-Jul-24 01:33N 26°04' W 079°59'7 7.1
2016-Jul-24 00:33N 26°05' W 080°07'1 1.3
2016-Jul-23 23:30N 26°04' W 080°08'0 0.0
2016-Jul-23 22:33N 26°04' W 080°08'0 0.0
2016-Jul-23 21:33N 26°04' W 080°08'0 0.0
2016-Jul-23 20:33N 26°04' W 080°08'0 0.0
2016-Jul-23 19:33N 26°04' W 080°08'0 0.0
2016-Jul-23 18:33N 26°04' W 080°08'0 0.0
2016-Jul-23 17:33N 26°04' W 080°08'0 0.0
2016-Jul-23 16:24N 26°04' W 080°08'0 0.0
2016-Jul-23 15:24N 26°04' W 080°08'0 0.0
2016-Jul-23 14:27N 26°04' W 080°08'0 0.0
2016-Jul-23 13:27N 26°04' W 080°08'0 0.0
2016-Jul-23 12:27N 26°04' W 080°08'0 0.0
2016-Jul-23 11:30N 26°04' W 080°08'0 0.0
2016-Jul-23 10:30N 26°04' W 080°08'0 0.0
2016-Jul-23 09:30N 26°04' W 080°08'0 0.0
2016-Jul-23 08:33N 26°04' W 080°08'0 0.0
2016-Jul-23 07:33N 26°04' W 080°08'0 0.0
2016-Jul-23 06:33N 26°04' W 080°08'0 0.0
2016-Jul-23 04:33N 26°04' W 080°08'0 0.0
2016-Jul-23 03:18N 26°04' W 080°08'0 0.0
2016-Jul-23 02:33N 26°04' W 080°08'0 0.0
2016-Jul-23 01:24N 26°04' W 080°08'0 0.0
2016-Jul-23 00:21N 26°04' W 080°08'0 0.0
2016-Jul-22 23:27N 26°04' W 080°08'0 0.0
2016-Jul-22 22:24N 26°04' W 080°08'0 0.0
2016-Jul-22 21:30N 26°04' W 080°08'0 0.0
2016-Jul-22 20:30N 26°04' W 080°08'0 0.0
2016-Jul-22 19:15N 26°04' W 080°08'0 0.0
2016-Jul-22 18:33N 26°04' W 080°08'0 0.0
2016-Jul-22 17:33N 26°04' W 080°08'0 0.0
2016-Jul-22 16:33N 26°04' W 080°08'0 0.0
2016-Jul-22 15:33N 26°04' W 080°08'0 0.0
2016-Jul-22 14:33N 26°04' W 080°08'0 0.0
2016-Jul-22 13:33N 26°04' W 080°08'0 0.0
2016-Jul-22 12:33N 26°04' W 080°08'1 1.4
2016-Jul-22 11:33N 26°05' W 080°07'8 8.4
2016-Jul-22 10:33N 26°04' W 079°58'10 9.9
2016-Jul-22 09:33N 26°01' W 079°47'10 9.6
2016-Jul-22 08:33N 25°58' W 079°37'  
2016-Jul-20 04:32N 25°57' W 079°31'8 8.0
2016-Jul-20 03:32N 25°59' W 079°39'7 7.6
2016-Jul-20 02:33N 26°01' W 079°47'7 7.4
2016-Jul-20 01:33N 26°03' W 079°55'9 8.5
2016-Jul-20 00:33N 26°05' W 080°04'3 3.4
2016-Jul-19 23:33N 26°04' W 080°08'0 0.1
2016-Jul-19 22:33N 26°04' W 080°08'0 0.0
2016-Jul-19 21:33N 26°04' W 080°08'0 0.0
2016-Jul-19 20:33N 26°04' W 080°08'5 5.2
2016-Jul-19 19:33N 26°06' W 080°03'9 8.7
2016-Jul-19 18:33N 26°09' W 079°54'7 7.3
2016-Jul-19 17:33N 26°11' W 079°46'8 7.9
2016-Jul-19 16:33N 26°14' W 079°38'2 0.1
2016-Jul-19 02:33N 26°14' W 079°40'10 9.8
2016-Jul-19 01:33N 26°10' W 079°50'10 9.7
2016-Jul-19 00:33N 26°07' W 080°00'7 7.2
2016-Jul-18 23:33N 26°04' W 080°07'0 0.3
2016-Jul-18 22:33N 26°04' W 080°08'0 0.0
2016-Jul-18 21:33N 26°04' W 080°08'0 0.0
2016-Jul-18 20:33N 26°04' W 080°08'0 0.0
2016-Jul-18 19:33N 26°04' W 080°08'0 0.0
2016-Jul-18 18:33N 26°04' W 080°08'0 0.0
2016-Jul-18 17:33N 26°04' W 080°08'0 0.0
2016-Jul-18 16:33N 26°04' W 080°08'0 0.0
2016-Jul-18 15:33N 26°04' W 080°08'0 0.0
2016-Jul-18 14:33N 26°04' W 080°08'0 0.0
2016-Jul-18 13:33N 26°04' W 080°08'0 0.0
2016-Jul-18 12:33N 26°04' W 080°08'0 0.0
2016-Jul-18 11:33N 26°04' W 080°08'0 0.0
2016-Jul-18 10:33N 26°04' W 080°08'0 0.0
2016-Jul-18 09:33N 26°04' W 080°08'0 0.0
2016-Jul-18 08:33N 26°04' W 080°08'0 0.0
2016-Jul-18 07:33N 26°04' W 080°08'0 0.0
2016-Jul-18 06:33N 26°04' W 080°08'0 0.0
2016-Jul-18 05:33N 26°04' W 080°08'0 0.0
2016-Jul-18 04:33N 26°04' W 080°08'0 0.0
2016-Jul-18 03:33N 26°04' W 080°08'0 0.0
2016-Jul-18 02:33N 26°04' W 080°08'0 0.0
2016-Jul-18 01:33N 26°04' W 080°08'0 0.0
2016-Jul-18 00:33N 26°04' W 080°08'0 0.0
2016-Jul-17 23:33N 26°04' W 080°08'0 0.0
2016-Jul-17 22:33N 26°04' W 080°08'0 0.0
2016-Jul-17 21:33N 26°04' W 080°08'0 0.0
2016-Jul-17 20:33N 26°04' W 080°08'0 0.0
2016-Jul-17 19:33N 26°04' W 080°08'0 0.0
2016-Jul-17 18:33N 26°04' W 080°08'0 0.0
2016-Jul-17 17:33N 26°04' W 080°08'0 0.0
2016-Jul-17 16:33N 26°04' W 080°08'0 0.0
2016-Jul-17 15:33N 26°04' W 080°08'0 0.0
2016-Jul-17 14:33N 26°04' W 080°08'0 0.0
2016-Jul-17 13:33N 26°04' W 080°08'0 0.0
2016-Jul-17 12:33N 26°04' W 080°08'0 0.0
2016-Jul-17 11:33N 26°04' W 080°08'5 4.6
2016-Jul-17 10:33N 26°05' W 080°03'9 9.2
2016-Jul-17 09:33N 26°02' W 079°53'8 8.3
2016-Jul-17 08:33N 25°60' W 079°44'8 8.3
2016-Jul-17 07:33N 25°57' W 079°35'7 0.2
2016-Jul-15 23:31N 25°60' W 079°42'7 7.8
2016-Jul-15 22:33N 26°02' W 079°50'8 7.9
2016-Jul-15 21:33N 26°04' W 079°59'7 7.2
2016-Jul-15 20:33N 26°04' W 080°07'1 1.0
2016-Jul-15 19:33N 26°04' W 080°08'0 0.0
2016-Jul-15 18:33N 26°04' W 080°08'0 0.0
2016-Jul-15 17:33N 26°04' W 080°08'0 0.0
2016-Jul-15 16:33N 26°04' W 080°08'0 0.0
2016-Jul-15 15:33N 26°04' W 080°08'0 0.0
2016-Jul-15 14:33N 26°04' W 080°08'0 0.1
2016-Jul-15 13:33N 26°04' W 080°08'0 0.0
2016-Jul-15 12:33N 26°04' W 080°08'0 0.0
2016-Jul-15 11:33N 26°04' W 080°08'4 4.2
2016-Jul-15 10:33N 26°05' W 080°03'10 9.7
2016-Jul-15 09:33N 26°03' W 079°53'8 8.0
2016-Jul-15 08:33N 26°00' W 079°44'8 8.1
2016-Jul-15 07:33N 25°58' W 079°36'  
Track history (hours):
 
Tides and Currents Weather Stations Pressure Air Temp Water Temp Dewpoint Dewpoint Depression Visibility Wind Speed Wind Dir Waves Ship Positions

Cape Express

Last reported at 2016-Jul-24 04:32 UTC. Time now 2016-Jul-25 14:03 UTC.
Position N 25°58' W 079°35'.

Length 29 m; draft 2.2 m.

Type: Cargo ship. MMSI: 370269000.

Date/timePositionNaut miles runAvg speedWind from/ knotsBaromVisibWave heightAir tempDewpointWater temp
2016-Jul-24 04:32N 25°58' W 079°35'8 8.1
2016-Jul-24 03:33N 26°00' W 079°43'8 7.6
2016-Jul-24 02:33N 26°02' W 079°52'7 7.0
2016-Jul-24 01:33N 26°04' W 079°59'7 7.1
2016-Jul-24 00:33N 26°05' W 080°07'1 1.3
2016-Jul-23 23:30N 26°04' W 080°08'0 0.0
2016-Jul-23 22:33N 26°04' W 080°08'0 0.0
2016-Jul-23 21:33N 26°04' W 080°08'0 0.0
2016-Jul-23 20:33N 26°04' W 080°08'0 0.0
2016-Jul-23 19:33N 26°04' W 080°08'0 0.0
2016-Jul-23 18:33N 26°04' W 080°08'0 0.0
2016-Jul-23 17:33N 26°04' W 080°08'0 0.0
2016-Jul-23 16:24N 26°04' W 080°08'0 0.0
2016-Jul-23 15:24N 26°04' W 080°08'0 0.0
2016-Jul-23 14:27N 26°04' W 080°08'0 0.0
2016-Jul-23 13:27N 26°04' W 080°08'0 0.0
2016-Jul-23 12:27N 26°04' W 080°08'0 0.0
2016-Jul-23 11:30N 26°04' W 080°08'0 0.0
2016-Jul-23 10:30N 26°04' W 080°08'0 0.0
2016-Jul-23 09:30N 26°04' W 080°08'0 0.0
2016-Jul-23 08:33N 26°04' W 080°08'0 0.0
2016-Jul-23 07:33N 26°04' W 080°08'0 0.0
2016-Jul-23 06:33N 26°04' W 080°08'0 0.0
2016-Jul-23 04:33N 26°04' W 080°08'0 0.0
2016-Jul-23 03:18N 26°04' W 080°08'0 0.0
2016-Jul-23 02:33N 26°04' W 080°08'0 0.0
2016-Jul-23 01:24N 26°04' W 080°08'0 0.0
2016-Jul-23 00:21N 26°04' W 080°08'0 0.0
2016-Jul-22 23:27N 26°04' W 080°08'0 0.0
2016-Jul-22 22:24N 26°04' W 080°08'0 0.0
2016-Jul-22 21:30N 26°04' W 080°08'0 0.0
2016-Jul-22 20:30N 26°04' W 080°08'0 0.0
2016-Jul-22 19:15N 26°04' W 080°08'0 0.0
2016-Jul-22 18:33N 26°04' W 080°08'0 0.0
2016-Jul-22 17:33N 26°04' W 080°08'0 0.0
2016-Jul-22 16:33N 26°04' W 080°08'0 0.0
2016-Jul-22 15:33N 26°04' W 080°08'0 0.0
2016-Jul-22 14:33N 26°04' W 080°08'0 0.0
2016-Jul-22 13:33N 26°04' W 080°08'0 0.0
2016-Jul-22 12:33N 26°04' W 080°08'1 1.4
2016-Jul-22 11:33N 26°05' W 080°07'8 8.4
2016-Jul-22 10:33N 26°04' W 079°58'10 9.9
2016-Jul-22 09:33N 26°01' W 079°47'10 9.6
2016-Jul-22 08:33N 25°58' W 079°37'  
2016-Jul-20 04:32N 25°57' W 079°31'8 8.0
2016-Jul-20 03:32N 25°59' W 079°39'7 7.6
2016-Jul-20 02:33N 26°01' W 079°47'7 7.4
2016-Jul-20 01:33N 26°03' W 079°55'9 8.5
2016-Jul-20 00:33N 26°05' W 080°04'3 3.4
2016-Jul-19 23:33N 26°04' W 080°08'0 0.1
2016-Jul-19 22:33N 26°04' W 080°08'0 0.0
2016-Jul-19 21:33N 26°04' W 080°08'0 0.0
2016-Jul-19 20:33N 26°04' W 080°08'5 5.2
2016-Jul-19 19:33N 26°06' W 080°03'9 8.7
2016-Jul-19 18:33N 26°09' W 079°54'7 7.3
2016-Jul-19 17:33N 26°11' W 079°46'8 7.9
2016-Jul-19 16:33N 26°14' W 079°38'2 0.1
2016-Jul-19 02:33N 26°14' W 079°40'10 9.8
2016-Jul-19 01:33N 26°10' W 079°50'10 9.7
2016-Jul-19 00:33N 26°07' W 080°00'7 7.2
2016-Jul-18 23:33N 26°04' W 080°07'0 0.3
2016-Jul-18 22:33N 26°04' W 080°08'0 0.0
2016-Jul-18 21:33N 26°04' W 080°08'0 0.0
2016-Jul-18 20:33N 26°04' W 080°08'0 0.0
2016-Jul-18 19:33N 26°04' W 080°08'0 0.0
2016-Jul-18 18:33N 26°04' W 080°08'0 0.0
2016-Jul-18 17:33N 26°04' W 080°08'0 0.0
2016-Jul-18 16:33N 26°04' W 080°08'0 0.0
2016-Jul-18 15:33N 26°04' W 080°08'0 0.0
2016-Jul-18 14:33N 26°04' W 080°08'0 0.0
2016-Jul-18 13:33N 26°04' W 080°08'0 0.0
2016-Jul-18 12:33N 26°04' W 080°08'0 0.0
2016-Jul-18 11:33N 26°04' W 080°08'0 0.0
2016-Jul-18 10:33N 26°04' W 080°08'0 0.0
2016-Jul-18 09:33N 26°04' W 080°08'0 0.0
2016-Jul-18 08:33N 26°04' W 080°08'0 0.0
2016-Jul-18 07:33N 26°04' W 080°08'0 0.0
2016-Jul-18 06:33N 26°04' W 080°08'0 0.0
2016-Jul-18 05:33N 26°04' W 080°08'0 0.0
2016-Jul-18 04:33N 26°04' W 080°08'0 0.0
2016-Jul-18 03:33N 26°04' W 080°08'0 0.0
2016-Jul-18 02:33N 26°04' W 080°08'0 0.0
2016-Jul-18 01:33N 26°04' W 080°08'0 0.0
2016-Jul-18 00:33N 26°04' W 080°08'0 0.0
2016-Jul-17 23:33N 26°04' W 080°08'0 0.0
2016-Jul-17 22:33N 26°04' W 080°08'0 0.0
2016-Jul-17 21:33N 26°04' W 080°08'0 0.0
2016-Jul-17 20:33N 26°04' W 080°08'0 0.0
2016-Jul-17 19:33N 26°04' W 080°08'0 0.0
2016-Jul-17 18:33N 26°04' W 080°08'0 0.0
2016-Jul-17 17:33N 26°04' W 080°08'0 0.0
2016-Jul-17 16:33N 26°04' W 080°08'0 0.0
2016-Jul-17 15:33N 26°04' W 080°08'0 0.0
2016-Jul-17 14:33N 26°04' W 080°08'0 0.0
2016-Jul-17 13:33N 26°04' W 080°08'0 0.0
2016-Jul-17 12:33N 26°04' W 080°08'0 0.0
2016-Jul-17 11:33N 26°04' W 080°08'5 4.6
2016-Jul-17 10:33N 26°05' W 080°03'9 9.2
2016-Jul-17 09:33N 26°02' W 079°53'8 8.3
2016-Jul-17 08:33N 25°60' W 079°44'8 8.3
2016-Jul-17 07:33N 25°57' W 079°35'7 0.2
2016-Jul-15 23:31N 25°60' W 079°42'7 7.8
2016-Jul-15 22:33N 26°02' W 079°50'8 7.9
2016-Jul-15 21:33N 26°04' W 079°59'7 7.2
2016-Jul-15 20:33N 26°04' W 080°07'1 1.0
2016-Jul-15 19:33N 26°04' W 080°08'0 0.0
2016-Jul-15 18:33N 26°04' W 080°08'0 0.0
2016-Jul-15 17:33N 26°04' W 080°08'0 0.0
2016-Jul-15 16:33N 26°04' W 080°08'0 0.0
2016-Jul-15 15:33N 26°04' W 080°08'0 0.0
2016-Jul-15 14:33N 26°04' W 080°08'0 0.1
2016-Jul-15 13:33N 26°04' W 080°08'0 0.0
2016-Jul-15 12:33N 26°04' W 080°08'0 0.0
2016-Jul-15 11:33N 26°04' W 080°08'4 4.2
2016-Jul-15 10:33N 26°05' W 080°03'10 9.7
2016-Jul-15 09:33N 26°03' W 079°53'8 8.0
2016-Jul-15 08:33N 26°00' W 079°44'8 8.1
2016-Jul-15 07:33N 25°58' W 079°36'  

Dump ship's entire track history